createdAt,value
2022-10-09T00:01:29.540Z,100.00
2022-10-09T00:06:33.541Z,100.00
2022-10-09T00:11:34.973Z,100.00
2022-10-09T00:16:36.397Z,100.00
2022-10-09T00:21:37.909Z,100.00
2022-10-09T00:26:39.405Z,100.00
2022-10-09T00:31:40.853Z,100.00
2022-10-09T00:36:42.377Z,100.00
2022-10-09T00:41:43.737Z,100.00
2022-10-09T00:46:49.846Z,100.00
2022-10-09T00:51:52.235Z,100.00
2022-10-09T00:56:55.012Z,100.00
2022-10-09T01:01:56.869Z,100.00
2022-10-09T01:07:19.094Z,100.00
2022-10-09T01:12:20.443Z,100.00
2022-10-09T01:17:53.564Z,100.00
2022-10-09T01:23:12.746Z,100.00
2022-10-09T01:28:16.041Z,100.00
2022-10-09T01:33:18.485Z,100.00
2022-10-09T01:38:23.247Z,100.00
2022-10-09T01:43:24.817Z,100.00
2022-10-09T01:48:27.579Z,100.00
2022-10-09T01:53:29.508Z,100.00
2022-10-09T01:58:38.961Z,100.00
2022-10-09T02:03:43.574Z,100.00
2022-10-09T02:08:48.700Z,100.00
2022-10-09T02:13:51.128Z,100.00
2022-10-09T02:19:00.737Z,100.00
2022-10-09T02:24:04.743Z,100.00
2022-10-09T02:29:06.617Z,100.00
2022-10-09T02:34:11.295Z,100.00
2022-10-09T02:39:12.889Z,100.00
2022-10-09T02:44:14.411Z,100.00
2022-10-09T02:49:15.878Z,100.00
2022-10-09T02:54:17.342Z,100.00
2022-10-09T02:59:18.839Z,100.00
2022-10-09T03:04:20.281Z,100.00
2022-10-09T03:09:21.675Z,100.00
2022-10-09T03:14:23.053Z,100.00
2022-10-09T03:19:24.547Z,100.00
2022-10-09T03:24:26.384Z,100.00
2022-10-09T03:29:27.776Z,100.00
2022-10-09T03:34:29.229Z,100.00
2022-10-09T03:39:30.583Z,100.00
2022-10-09T03:44:32.033Z,100.00
2022-10-09T03:49:33.450Z,100.00
2022-10-09T03:54:34.838Z,100.00
2022-10-09T03:59:36.217Z,100.00
2022-10-09T04:04:37.573Z,100.00
2022-10-09T04:09:38.977Z,100.00
2022-10-09T04:14:40.495Z,100.00
2022-10-09T04:19:41.891Z,100.00
2022-10-09T04:24:43.232Z,100.00
2022-10-09T04:29:44.618Z,100.00
2022-10-09T04:34:46.072Z,100.00
2022-10-09T04:39:48.837Z,100.00
2022-10-09T04:44:50.283Z,100.00
2022-10-09T04:49:51.742Z,100.00
2022-10-09T04:54:53.152Z,100.00
2022-10-09T04:59:54.565Z,100.00
2022-10-09T05:04:56.013Z,100.00
2022-10-09T05:09:57.436Z,100.00
2022-10-09T05:14:58.914Z,100.00
2022-10-09T05:20:00.333Z,100.00
2022-10-09T05:25:01.823Z,100.00
2022-10-09T05:30:04.147Z,100.00
2022-10-09T05:35:06.133Z,100.00
2022-10-09T05:40:08.319Z,100.00
2022-10-09T05:45:10.545Z,100.00
2022-10-09T05:50:12.188Z,100.00
2022-10-09T05:55:13.644Z,100.00
2022-10-09T06:00:15.112Z,100.00
2022-10-09T06:05:57.271Z,100.00
2022-10-09T06:10:58.729Z,100.00
2022-10-09T06:16:00.320Z,100.00
2022-10-09T06:21:10.109Z,100.00
2022-10-09T06:26:13.434Z,100.00
2022-10-09T06:36:42.576Z,100.00
2022-10-09T06:41:43.986Z,100.00
2022-10-09T06:46:48.717Z,100.00
2022-10-09T06:51:52.944Z,100.00
2022-10-09T06:56:54.498Z,100.00
2022-10-09T07:01:55.941Z,100.00
2022-10-09T07:06:57.686Z,100.00
2022-10-09T07:12:01.737Z,100.00
2022-10-09T07:17:03.402Z,100.00
2022-10-09T07:22:05.259Z,100.00
2022-10-09T07:27:06.872Z,100.00
2022-10-09T07:32:10.630Z,100.00
2022-10-09T07:37:12.751Z,100.00
2022-10-09T07:42:14.973Z,100.00
2022-10-09T07:47:18.656Z,100.00
2022-10-09T07:52:20.436Z,100.00
2022-10-09T07:57:33.724Z,100.00
2022-10-09T08:02:35.722Z,100.00
2022-10-09T08:07:40.023Z,100.00
2022-10-09T08:12:42.104Z,100.00
2022-10-09T08:17:43.633Z,100.00
2022-10-09T08:22:45.242Z,100.00
2022-10-09T08:27:46.861Z,100.00
2022-10-09T08:32:48.434Z,100.00
2022-10-09T08:37:50.049Z,100.00
2022-10-09T08:43:06.336Z,100.00
2022-10-09T08:48:14.204Z,62.08
2022-10-09T08:53:28.416Z,59.45
2022-10-09T08:58:34.701Z,100.00
2022-10-09T09:03:52.424Z,100.00
2022-10-09T09:09:07.735Z,50.91
2022-10-09T09:14:17.853Z,100.00
2022-10-09T09:19:53.012Z,100.00
2022-10-09T09:24:57.332Z,100.00
2022-10-09T09:30:16.458Z,100.00
2022-10-09T09:35:36.334Z,41.20
2022-10-09T09:40:50.127Z,39.24
2022-10-09T09:46:08.052Z,37.66
2022-10-09T09:51:35.879Z,35.83
2022-10-09T09:57:11.935Z,34.60
2022-10-09T10:02:25.419Z,100.00
2022-10-09T10:07:32.571Z,100.00
2022-10-09T10:12:40.434Z,33.53
2022-10-09T10:17:45.180Z,100.00
2022-10-09T10:23:17.283Z,100.00
2022-10-09T10:33:57.571Z,100.00
2022-10-09T10:39:07.731Z,100.00
2022-10-09T10:50:27.370Z,100.00
2022-10-09T10:55:49.039Z,100.00
2022-10-09T11:01:06.732Z,100.00
2022-10-09T11:06:18.253Z,100.00
2022-10-09T11:11:36.784Z,100.00
2022-10-09T11:16:58.356Z,100.00
2022-10-09T11:22:25.687Z,100.00
2022-10-09T11:27:38.579Z,100.00
2022-10-09T11:33:04.948Z,100.00
2022-10-09T11:43:44.383Z,100.00
2022-10-09T11:48:58.349Z,100.00
2022-10-09T11:54:01.813Z,100.00
2022-10-09T11:59:06.212Z,38.19
2022-10-09T12:04:13.696Z,36.98
2022-10-09T12:09:28.949Z,100.00
2022-10-09T12:14:31.146Z,100.00
2022-10-09T12:19:53.299Z,29.73
2022-10-09T12:24:59.027Z,100.00
2022-10-09T12:30:10.797Z,100.00
2022-10-09T12:35:48.112Z,25.65
2022-10-09T12:41:04.065Z,25.00
2022-10-09T12:46:08.671Z,23.46
2022-10-09T12:51:20.225Z,23.12
2022-10-09T12:56:36.667Z,23.77
2022-10-09T13:01:40.832Z,23.52
2022-10-09T13:06:44.866Z,23.60
2022-10-09T13:12:07.062Z,23.76
2022-10-09T13:22:36.704Z,24.13
2022-10-09T13:27:39.910Z,24.58
2022-10-09T13:32:41.535Z,24.32
2022-10-09T13:37:43.024Z,25.58
2022-10-09T13:42:57.432Z,26.18
2022-10-09T13:47:59.151Z,26.26
2022-10-09T13:53:00.771Z,100.00
2022-10-09T13:58:02.703Z,100.00
2022-10-09T14:03:07.878Z,100.00
2022-10-09T14:13:39.593Z,100.00
2022-10-09T14:18:43.555Z,100.00
2022-10-09T14:23:46.378Z,100.00
2022-10-09T14:28:48.428Z,100.00
2022-10-09T14:33:50.243Z,100.00
2022-10-09T14:38:53.604Z,100.00
2022-10-09T14:43:57.774Z,100.00
2022-10-09T14:48:59.801Z,37.46
2022-10-09T14:54:09.429Z,44.02
2022-10-09T14:59:13.185Z,100.00
2022-10-09T15:04:14.750Z,100.00
2022-10-09T15:09:16.820Z,100.00
2022-10-09T15:14:18.227Z,45.03
2022-10-09T15:19:19.835Z,100.00
2022-10-09T15:24:21.306Z,100.00
2022-10-09T15:29:28.239Z,100.00
2022-10-09T15:34:29.757Z,100.00
2022-10-09T15:39:38.808Z,100.00
2022-10-09T15:44:52.766Z,100.00
2022-10-09T15:50:08.841Z,100.00
2022-10-09T15:55:10.408Z,100.00
2022-10-09T16:00:15.203Z,100.00
2022-10-09T16:05:16.654Z,100.00
2022-10-09T16:10:36.972Z,100.00
2022-10-09T16:15:42.572Z,100.00
2022-10-09T16:20:44.903Z,100.00
2022-10-09T16:25:57.149Z,100.00
2022-10-09T16:30:58.670Z,100.00
2022-10-09T16:36:08.233Z,47.92
2022-10-09T16:41:15.782Z,47.98
2022-10-09T16:46:26.404Z,48.83
2022-10-09T16:51:34.660Z,49.09
2022-10-09T16:56:39.187Z,49.56
2022-10-09T17:01:41.434Z,50.26
2022-10-09T17:06:43.916Z,50.44
2022-10-09T17:11:45.741Z,50.94
2022-10-09T17:16:47.523Z,52.03
2022-10-09T17:21:49.164Z,52.27
2022-10-09T17:26:50.839Z,53.23
2022-10-09T17:31:52.475Z,53.56
2022-10-09T17:36:54.120Z,54.44
2022-10-09T17:41:55.753Z,55.81
2022-10-09T17:46:57.441Z,100.00
2022-10-09T17:51:59.023Z,100.00
2022-10-09T17:57:00.962Z,100.00
2022-10-09T18:02:34.736Z,100.00
2022-10-09T18:07:37.084Z,100.00
2022-10-09T18:12:38.725Z,100.00
2022-10-09T18:17:40.559Z,100.00
2022-10-09T18:22:45.482Z,100.00
2022-10-09T18:28:03.748Z,62.42
2022-10-09T18:33:10.167Z,63.54
2022-10-09T18:38:11.784Z,64.49
2022-10-09T18:43:13.479Z,65.99
2022-10-09T18:48:16.500Z,67.18
2022-10-09T18:53:18.187Z,67.71
2022-10-09T18:58:20.106Z,68.16
2022-10-09T19:03:21.805Z,69.01
2022-10-09T19:08:26.626Z,69.82
2022-10-09T19:13:28.573Z,70.12
2022-10-09T19:18:36.743Z,70.87
2022-10-09T19:23:43.281Z,71.36
2022-10-09T19:28:47.588Z,72.99
2022-10-09T19:33:52.491Z,73.17
2022-10-09T19:39:12.415Z,72.97
2022-10-09T19:44:14.259Z,73.39
2022-10-09T19:49:16.124Z,73.74
2022-10-09T19:54:20.448Z,73.87
2022-10-09T19:59:22.110Z,74.03
2022-10-09T20:04:44.114Z,74.25
2022-10-09T20:09:46.230Z,74.58
2022-10-09T20:14:55.500Z,74.50
2022-10-09T20:19:57.062Z,74.76
2022-10-09T20:24:58.640Z,75.13
2022-10-09T20:30:00.378Z,75.67
2022-10-09T20:35:04.855Z,75.97
2022-10-09T20:40:07.083Z,76.33
2022-10-09T20:45:09.464Z,77.35
2022-10-09T20:50:11.230Z,100.00
2022-10-09T20:55:12.910Z,100.00
2022-10-09T21:00:16.655Z,100.00
2022-10-09T21:05:18.244Z,100.00
2022-10-09T21:10:22.645Z,100.00
2022-10-09T21:15:27.380Z,100.00
2022-10-09T21:20:29.645Z,100.00
2022-10-09T21:25:31.128Z,100.00
2022-10-09T21:30:41.299Z,100.00
2022-10-09T21:35:49.179Z,100.00
2022-10-09T21:40:50.913Z,100.00
2022-10-09T21:46:28.476Z,100.00
2022-10-09T21:51:28.585Z,100.00
2022-10-09T21:56:34.668Z,100.00
2022-10-09T22:01:36.380Z,100.00
2022-10-09T22:06:38.319Z,100.00
2022-10-09T22:11:39.832Z,100.00
2022-10-09T22:16:45.068Z,100.00
2022-10-09T22:21:47.211Z,100.00
2022-10-09T22:26:49.092Z,100.00
2022-10-09T22:31:50.857Z,100.00
2022-10-09T22:36:52.447Z,100.00
2022-10-09T22:41:56.860Z,100.00
2022-10-09T22:47:01.549Z,100.00
2022-10-09T22:52:03.351Z,100.00
2022-10-09T22:57:05.060Z,100.00
2022-10-09T23:02:07.446Z,100.00
2022-10-09T23:07:14.377Z,100.00
2022-10-09T23:12:19.416Z,100.00
2022-10-09T23:17:21.153Z,100.00
2022-10-09T23:22:22.854Z,100.00
2022-10-09T23:27:25.649Z,100.00
2022-10-09T23:32:27.266Z,100.00
2022-10-09T23:37:34.657Z,100.00
2022-10-09T23:42:36.401Z,100.00
2022-10-09T23:47:41.312Z,100.00
2022-10-09T23:52:43.825Z,100.00
2022-10-09T23:57:45.807Z,100.00
